sensor_id;sensor_type;location;lat;lon;timestamp;temperature;humidity
7894;DHT22;51343;51.396;6.656;2023-04-01T00:01:43;9.40;99.90
7894;DHT22;51343;51.396;6.656;2023-04-01T00:04:10;9.40;99.90
7894;DHT22;51343;51.396;6.656;2023-04-01T00:06:37;9.50;99.90
7894;DHT22;51343;51.396;6.656;2023-04-01T00:09:05;9.50;99.90
7894;DHT22;51343;51.396;6.656;2023-04-01T00:11:32;9.50;99.90
7894;DHT22;51343;51.396;6.656;2023-04-01T00:14:00;9.50;99.90
7894;DHT22;51343;51.396;6.656;2023-04-01T00:16:29;9.50;99.90
7894;DHT22;51343;51.396;6.656;2023-04-01T00:18:55;9.50;99.90
7894;DHT22;51343;51.396;6.656;2023-04-01T00:21:22;9.50;99.90
7894;DHT22;51343;51.396;6.656;2023-04-01T00:23:50;9.50;99.90
7894;DHT22;51343;51.396;6.656;2023-04-01T00:26:18;9.50;99.90
7894;DHT22;51343;51.396;6.656;2023-04-01T00:28:46;9.40;99.90
7894;DHT22;51343;51.396;6.656;2023-04-01T00:31:14;9.50;99.90
7894;DHT22;51343;51.396;6.656;2023-04-01T00:33:43;9.40;99.90
7894;DHT22;51343;51.396;6.656;2023-04-01T00:36:11;9.40;99.90
7894;DHT22;51343;51.396;6.656;2023-04-01T00:38:38;9.40;99.90
7894;DHT22;51343;51.396;6.656;2023-04-01T00:41:09;9.40;99.90
7894;DHT22;51343;51.396;6.656;2023-04-01T00:43:39;9.40;99.90
7894;DHT22;51343;51.396;6.656;2023-04-01T00:46:06;9.40;99.90
7894;DHT22;51343;51.396;6.656;2023-04-01T00:48:34;9.40;99.90
7894;DHT22;51343;51.396;6.656;2023-04-01T00:51:05;9.40;99.90
7894;DHT22;51343;51.396;6.656;2023-04-01T00:53:33;9.40;99.90
7894;DHT22;51343;51.396;6.656;2023-04-01T00:56:02;9.40;99.90
7894;DHT22;51343;51.396;6.656;2023-04-01T00:58:31;9.40;99.90
7894;DHT22;51343;51.396;6.656;2023-04-01T01:00:59;9.40;99.90
7894;DHT22;51343;51.396;6.656;2023-04-01T01:03:26;9.40;99.90
7894;DHT22;51343;51.396;6.656;2023-04-01T01:05:57;9.50;99.90
7894;DHT22;51343;51.396;6.656;2023-04-01T01:08:33;9.40;99.90
7894;DHT22;51343;51.396;6.656;2023-04-01T01:11:08;9.40;99.90
7894;DHT22;51343;51.396;6.656;2023-04-01T01:13:39;9.50;99.90
7894;DHT22;51343;51.396;6.656;2023-04-01T01:16:09;9.40;99.90
7894;DHT22;51343;51.396;6.656;2023-04-01T01:18:38;9.50;99.90
7894;DHT22;51343;51.396;6.656;2023-04-01T01:21:11;9.50;99.90
7894;DHT22;51343;51.396;6.656;2023-04-01T01:27:01;9.40;99.90
7894;DHT22;51343;51.396;6.656;2023-04-01T01:29:45;9.40;99.90
7894;DHT22;51343;51.396;6.656;2023-04-01T01:32:18;9.40;99.90
7894;DHT22;51343;51.396;6.656;2023-04-01T01:34:54;9.40;99.90
7894;DHT22;51343;51.396;6.656;2023-04-01T01:37:31;9.50;99.90
7894;DHT22;51343;51.396;6.656;2023-04-01T01:39:58;9.50;99.90
7894;DHT22;51343;51.396;6.656;2023-04-01T01:42:26;9.50;99.90
7894;DHT22;51343;51.396;6.656;2023-04-01T01:44:54;9.50;99.90
7894;DHT22;51343;51.396;6.656;2023-04-01T01:47:23;9.50;99.90
7894;DHT22;51343;51.396;6.656;2023-04-01T01:49:52;9.50;99.90
7894;DHT22;51343;51.396;6.656;2023-04-01T01:52:19;9.40;99.90
7894;DHT22;51343;51.396;6.656;2023-04-01T01:54:49;9.50;99.90
7894;DHT22;51343;51.396;6.656;2023-04-01T01:57:16;9.50;99.90
7894;DHT22;51343;51.396;6.656;2023-04-01T01:59:45;9.50;99.90
7894;DHT22;51343;51.396;6.656;2023-04-01T02:02:13;9.40;99.90
7894;DHT22;51343;51.396;6.656;2023-04-01T02:04:43;9.40;99.90
7894;DHT22;51343;51.396;6.656;2023-04-01T02:07:12;9.40;99.90
7894;DHT22;51343;51.396;6.656;2023-04-01T02:09:40;9.50;99.90
7894;DHT22;51343;51.396;6.656;2023-04-01T02:12:09;9.40;99.90
7894;DHT22;51343;51.396;6.656;2023-04-01T02:14:39;9.40;99.90
7894;DHT22;51343;51.396;6.656;2023-04-01T02:17:07;9.40;99.90
7894;DHT22;51343;51.396;6.656;2023-04-01T02:19:36;9.40;99.90
7894;DHT22;51343;51.396;6.656;2023-04-01T02:22:05;9.40;99.90
7894;DHT22;51343;51.396;6.656;2023-04-01T02:24:34;9.40;99.90
7894;DHT22;51343;51.396;6.656;2023-04-01T02:27:05;9.30;99.90
7894;DHT22;51343;51.396;6.656;2023-04-01T02:29:33;9.30;99.90
7894;DHT22;51343;51.396;6.656;2023-04-01T02:32:00;9.20;99.90
7894;DHT22;51343;51.396;6.656;2023-04-01T02:34:27;9.20;99.90
7894;DHT22;51343;51.396;6.656;2023-04-01T02:36:54;9.10;99.90
7894;DHT22;51343;51.396;6.656;2023-04-01T02:39:21;9.10;99.90
7894;DHT22;51343;51.396;6.656;2023-04-01T02:41:50;9.10;99.90
7894;DHT22;51343;51.396;6.656;2023-04-01T02:44:16;9.10;99.90
7894;DHT22;51343;51.396;6.656;2023-04-01T02:46:44;9.10;99.90
7894;DHT22;51343;51.396;6.656;2023-04-01T02:49:11;9.10;99.90
7894;DHT22;51343;51.396;6.656;2023-04-01T02:51:37;9.10;99.90
7894;DHT22;51343;51.396;6.656;2023-04-01T02:54:04;9.10;99.90
7894;DHT22;51343;51.396;6.656;2023-04-01T02:56:31;9.00;99.90
7894;DHT22;51343;51.396;6.656;2023-04-01T02:58:57;9.00;99.90
7894;DHT22;51343;51.396;6.656;2023-04-01T03:01:24;9.00;99.90
7894;DHT22;51343;51.396;6.656;2023-04-01T03:03:52;9.10;99.90
7894;DHT22;51343;51.396;6.656;2023-04-01T03:06:19;9.10;99.90
7894;DHT22;51343;51.396;6.656;2023-04-01T03:08:46;9.10;99.90
7894;DHT22;51343;51.396;6.656;2023-04-01T03:11:15;9.10;99.90
7894;DHT22;51343;51.396;6.656;2023-04-01T03:13:41;9.10;99.90
7894;DHT22;51343;51.396;6.656;2023-04-01T03:16:08;9.10;99.90
7894;DHT22;51343;51.396;6.656;2023-04-01T03:18:35;9.10;99.90
7894;DHT22;51343;51.396;6.656;2023-04-01T03:23:45;9.10;99.90
7894;DHT22;51343;51.396;6.656;2023-04-01T03:26:12;9.10;99.90
7894;DHT22;51343;51.396;6.656;2023-04-01T03:28:38;9.10;99.90
7894;DHT22;51343;51.396;6.656;2023-04-01T03:31:05;9.10;99.90
7894;DHT22;51343;51.396;6.656;2023-04-01T03:33:32;9.10;99.90
7894;DHT22;51343;51.396;6.656;2023-04-01T03:35:59;9.10;99.90
7894;DHT22;51343;51.396;6.656;2023-04-01T03:38:25;9.10;99.90
7894;DHT22;51343;51.396;6.656;2023-04-01T03:43:23;9.10;99.90
7894;DHT22;51343;51.396;6.656;2023-04-01T03:45:50;9.10;99.90
7894;DHT22;51343;51.396;6.656;2023-04-01T03:48:17;9.20;99.90
7894;DHT22;51343;51.396;6.656;2023-04-01T03:50:44;9.10;99.90
7894;DHT22;51343;51.396;6.656;2023-04-01T03:53:10;9.10;99.90
7894;DHT22;51343;51.396;6.656;2023-04-01T03:55:37;9.20;99.90
7894;DHT22;51343;51.396;6.656;2023-04-01T03:58:04;9.20;99.90
7894;DHT22;51343;51.396;6.656;2023-04-01T04:00:33;9.20;99.90
7894;DHT22;51343;51.396;6.656;2023-04-01T04:02:59;9.20;99.90
7894;DHT22;51343;51.396;6.656;2023-04-01T04:05:26;9.20;99.90
7894;DHT22;51343;51.396;6.656;2023-04-01T04:07:53;9.20;99.90
7894;DHT22;51343;51.396;6.656;2023-04-01T04:10:20;9.20;99.90
7894;DHT22;51343;51.396;6.656;2023-04-01T04:12:48;9.20;99.90
7894;DHT22;51343;51.396;6.656;2023-04-01T04:15:15;9.20;99.90
7894;DHT22;51343;51.396;6.656;2023-04-01T04:17:43;9.20;99.90
7894;DHT22;51343;51.396;6.656;2023-04-01T04:20:10;9.20;99.90
7894;DHT22;51343;51.396;6.656;2023-04-01T04:22:36;9.20;99.90
7894;DHT22;51343;51.396;6.656;2023-04-01T04:25:03;9.20;99.90
7894;DHT22;51343;51.396;6.656;2023-04-01T04:27:30;9.20;99.90
7894;DHT22;51343;51.396;6.656;2023-04-01T04:29:57;9.10;99.90
7894;DHT22;51343;51.396;6.656;2023-04-01T04:32:23;9.10;99.90
7894;DHT22;51343;51.396;6.656;2023-04-01T04:34:51;9.10;99.90
7894;DHT22;51343;51.396;6.656;2023-04-01T04:37:18;9.10;99.90
7894;DHT22;51343;51.396;6.656;2023-04-01T04:39:45;9.20;99.90
7894;DHT22;51343;51.396;6.656;2023-04-01T04:42:11;9.20;99.90
7894;DHT22;51343;51.396;6.656;2023-04-01T04:44:38;9.20;99.90
7894;DHT22;51343;51.396;6.656;2023-04-01T04:47:05;9.10;99.90
7894;DHT22;51343;51.396;6.656;2023-04-01T04:49:32;9.10;99.90
7894;DHT22;51343;51.396;6.656;2023-04-01T04:52:01;9.10;99.90
7894;DHT22;51343;51.396;6.656;2023-04-01T04:54:27;9.10;99.90
7894;DHT22;51343;51.396;6.656;2023-04-01T04:56:54;9.10;99.90
7894;DHT22;51343;51.396;6.656;2023-04-01T04:59:21;9.10;99.90
7894;DHT22;51343;51.396;6.656;2023-04-01T05:01:47;9.10;99.90
7894;DHT22;51343;51.396;6.656;2023-04-01T05:04:14;9.10;99.90
7894;DHT22;51343;51.396;6.656;2023-04-01T05:06:42;9.10;99.90
7894;DHT22;51343;51.396;6.656;2023-04-01T05:09:10;9.10;99.90
7894;DHT22;51343;51.396;6.656;2023-04-01T05:11:36;9.10;99.90
7894;DHT22;51343;51.396;6.656;2023-04-01T05:14:03;9.10;99.90
7894;DHT22;51343;51.396;6.656;2023-04-01T05:16:30;9.10;99.90
7894;DHT22;51343;51.396;6.656;2023-04-01T05:18:56;9.10;99.90
7894;DHT22;51343;51.396;6.656;2023-04-01T05:21:23;9.10;99.90
7894;DHT22;51343;51.396;6.656;2023-04-01T05:23:49;9.00;99.90
7894;DHT22;51343;51.396;6.656;2023-04-01T05:26:17;9.10;99.90
7894;DHT22;51343;51.396;6.656;2023-04-01T05:28:44;9.10;99.90
7894;DHT22;51343;51.396;6.656;2023-04-01T05:31:11;9.10;99.90
7894;DHT22;51343;51.396;6.656;2023-04-01T05:33:37;9.10;99.90
7894;DHT22;51343;51.396;6.656;2023-04-01T05:36:07;9.00;99.90
7894;DHT22;51343;51.396;6.656;2023-04-01T05:38:34;9.10;99.90
7894;DHT22;51343;51.396;6.656;2023-04-01T05:41:01;9.10;99.90
7894;DHT22;51343;51.396;6.656;2023-04-01T05:43:30;9.10;99.90
7894;DHT22;51343;51.396;6.656;2023-04-01T05:45:56;9.10;99.90
7894;DHT22;51343;51.396;6.656;2023-04-01T05:48:23;9.10;99.90
7894;DHT22;51343;51.396;6.656;2023-04-01T05:50:50;9.00;99.90
7894;DHT22;51343;51.396;6.656;2023-04-01T05:53:17;9.10;99.90
7894;DHT22;51343;51.396;6.656;2023-04-01T05:55:46;9.00;99.90
7894;DHT22;51343;51.396;6.656;2023-04-01T05:58:13;9.00;99.90
7894;DHT22;51343;51.396;6.656;2023-04-01T06:00:41;9.00;99.90
7894;DHT22;51343;51.396;6.656;2023-04-01T06:03:07;9.00;99.90
7894;DHT22;51343;51.396;6.656;2023-04-01T06:05:38;9.00;99.90
7894;DHT22;51343;51.396;6.656;2023-04-01T06:08:10;9.00;99.90
7894;DHT22;51343;51.396;6.656;2023-04-01T06:10:39;9.10;99.90
7894;DHT22;51343;51.396;6.656;2023-04-01T06:13:13;9.10;99.90
7894;DHT22;51343;51.396;6.656;2023-04-01T06:15:47;9.10;99.90
7894;DHT22;51343;51.396;6.656;2023-04-01T06:21:04;9.10;99.90
7894;DHT22;51343;51.396;6.656;2023-04-01T06:23:35;9.00;99.90
7894;DHT22;51343;51.396;6.656;2023-04-01T06:26:11;9.10;99.90
7894;DHT22;51343;51.396;6.656;2023-04-01T06:28:46;9.00;99.90
7894;DHT22;51343;51.396;6.656;2023-04-01T06:31:23;9.00;99.90
7894;DHT22;51343;51.396;6.656;2023-04-01T06:33:57;9.10;99.90
7894;DHT22;51343;51.396;6.656;2023-04-01T06:36:39;9.10;99.90
7894;DHT22;51343;51.396;6.656;2023-04-01T06:39:12;9.10;99.90
7894;DHT22;51343;51.396;6.656;2023-04-01T06:41:55;9.10;99.90
7894;DHT22;51343;51.396;6.656;2023-04-01T06:44:28;9.10;99.90
7894;DHT22;51343;51.396;6.656;2023-04-01T06:47:01;9.10;99.90
7894;DHT22;51343;51.396;6.656;2023-04-01T06:49:36;9.10;99.90
7894;DHT22;51343;51.396;6.656;2023-04-01T06:52:10;9.10;99.90
7894;DHT22;51343;51.396;6.656;2023-04-01T06:54:38;9.10;99.90
7894;DHT22;51343;51.396;6.656;2023-04-01T06:57:09;9.10;99.90
7894;DHT22;51343;51.396;6.656;2023-04-01T06:59:40;9.10;99.90
7894;DHT22;51343;51.396;6.656;2023-04-01T07:02:15;9.10;99.90
7894;DHT22;51343;51.396;6.656;2023-04-01T07:04:44;9.10;99.90
7894;DHT22;51343;51.396;6.656;2023-04-01T07:07:14;9.10;99.90
7894;DHT22;51343;51.396;6.656;2023-04-01T07:09:47;9.10;99.90
7894;DHT22;51343;51.396;6.656;2023-04-01T07:12:19;9.10;99.90
7894;DHT22;51343;51.396;6.656;2023-04-01T07:14:48;9.10;99.90
7894;DHT22;51343;51.396;6.656;2023-04-01T07:17:19;9.10;99.90
7894;DHT22;51343;51.396;6.656;2023-04-01T07:19:48;9.10;99.90
7894;DHT22;51343;51.396;6.656;2023-04-01T07:22:20;9.10;99.90
7894;DHT22;51343;51.396;6.656;2023-04-01T07:24:49;9.10;99.90
7894;DHT22;51343;51.396;6.656;2023-04-01T07:27:16;9.20;99.90
7894;DHT22;51343;51.396;6.656;2023-04-01T07:29:43;9.20;99.90
7894;DHT22;51343;51.396;6.656;2023-04-01T07:32:23;9.10;99.90
7894;DHT22;51343;51.396;6.656;2023-04-01T07:34:56;9.10;99.90
7894;DHT22;51343;51.396;6.656;2023-04-01T07:37:27;9.20;99.90
7894;DHT22;51343;51.396;6.656;2023-04-01T07:39:56;9.20;99.90
7894;DHT22;51343;51.396;6.656;2023-04-01T07:42:28;9.20;99.90
7894;DHT22;51343;51.396;6.656;2023-04-01T07:44:59;9.20;99.90
7894;DHT22;51343;51.396;6.656;2023-04-01T07:47:37;9.20;99.90
7894;DHT22;51343;51.396;6.656;2023-04-01T07:50:10;9.20;99.90
7894;DHT22;51343;51.396;6.656;2023-04-01T07:52:39;9.20;99.90
7894;DHT22;51343;51.396;6.656;2023-04-01T07:55:10;9.30;99.90
7894;DHT22;51343;51.396;6.656;2023-04-01T07:57:40;9.30;99.90
7894;DHT22;51343;51.396;6.656;2023-04-01T08:00:10;9.30;99.90
7894;DHT22;51343;51.396;6.656;2023-04-01T08:02:47;9.30;99.90
7894;DHT22;51343;51.396;6.656;2023-04-01T08:05:19;9.30;99.90
7894;DHT22;51343;51.396;6.656;2023-04-01T08:07:50;9.30;99.90
7894;DHT22;51343;51.396;6.656;2023-04-01T08:10:22;9.40;99.90
7894;DHT22;51343;51.396;6.656;2023-04-01T08:12:55;9.40;99.90
7894;DHT22;51343;51.396;6.656;2023-04-01T08:15:25;9.40;99.90
7894;DHT22;51343;51.396;6.656;2023-04-01T08:17:58;9.40;99.90
7894;DHT22;51343;51.396;6.656;2023-04-01T08:20:32;9.40;99.90
7894;DHT22;51343;51.396;6.656;2023-04-01T08:23:01;9.50;99.90
7894;DHT22;51343;51.396;6.656;2023-04-01T08:25:29;9.40;99.90
7894;DHT22;51343;51.396;6.656;2023-04-01T08:27:58;9.40;99.90
7894;DHT22;51343;51.396;6.656;2023-04-01T08:30:26;9.50;99.90
7894;DHT22;51343;51.396;6.656;2023-04-01T08:32:55;9.40;99.90
7894;DHT22;51343;51.396;6.656;2023-04-01T08:35:28;9.50;99.90
7894;DHT22;51343;51.396;6.656;2023-04-01T08:37:57;9.50;99.90
7894;DHT22;51343;51.396;6.656;2023-04-01T08:43:11;9.50;99.90
7894;DHT22;51343;51.396;6.656;2023-04-01T08:45:44;9.50;99.90
7894;DHT22;51343;51.396;6.656;2023-04-01T08:48:22;9.50;99.90
7894;DHT22;51343;51.396;6.656;2023-04-01T08:50:56;9.50;99.90
7894;DHT22;51343;51.396;6.656;2023-04-01T08:53:34;9.50;99.90
7894;DHT22;51343;51.396;6.656;2023-04-01T08:56:09;9.60;99.90
7894;DHT22;51343;51.396;6.656;2023-04-01T09:01:36;9.60;99.90
7894;DHT22;51343;51.396;6.656;2023-04-01T09:04:14;9.60;99.90
7894;DHT22;51343;51.396;6.656;2023-04-01T09:06:50;9.60;99.90
7894;DHT22;51343;51.396;6.656;2023-04-01T09:09:25;9.60;99.90
7894;DHT22;51343;51.396;6.656;2023-04-01T09:12:02;9.60;99.90
7894;DHT22;51343;51.396;6.656;2023-04-01T09:14:37;9.60;99.90
7894;DHT22;51343;51.396;6.656;2023-04-01T09:22:44;9.80;99.90
7894;DHT22;51343;51.396;6.656;2023-04-01T09:28:03;9.90;99.90
7894;DHT22;51343;51.396;6.656;2023-04-01T09:30:35;9.90;99.90
7894;DHT22;51343;51.396;6.656;2023-04-01T09:35:55;9.90;99.90
7894;DHT22;51343;51.396;6.656;2023-04-01T09:38:30;9.90;99.90
7894;DHT22;51343;51.396;6.656;2023-04-01T09:41:02;9.90;99.90
7894;DHT22;51343;51.396;6.656;2023-04-01T09:46:08;9.90;99.90
7894;DHT22;51343;51.396;6.656;2023-04-01T09:48:40;9.90;99.90
7894;DHT22;51343;51.396;6.656;2023-04-01T09:51:12;9.90;99.90
7894;DHT22;51343;51.396;6.656;2023-04-01T09:53:45;9.90;99.90
7894;DHT22;51343;51.396;6.656;2023-04-01T09:56:21;9.90;99.90
7894;DHT22;51343;51.396;6.656;2023-04-01T10:01:39;9.90;99.90
7894;DHT22;51343;51.396;6.656;2023-04-01T10:04:17;9.90;99.90
7894;DHT22;51343;51.396;6.656;2023-04-01T10:06:57;9.90;99.90
7894;DHT22;51343;51.396;6.656;2023-04-01T10:12:33;9.90;99.90
7894;DHT22;51343;51.396;6.656;2023-04-01T10:18:03;9.90;99.90
7894;DHT22;51343;51.396;6.656;2023-04-01T10:23:22;9.90;99.90
7894;DHT22;51343;51.396;6.656;2023-04-01T10:28:54;9.90;99.90
7894;DHT22;51343;51.396;6.656;2023-04-01T10:34:33;10.00;99.90
7894;DHT22;51343;51.396;6.656;2023-04-01T10:37:08;10.10;99.90
7894;DHT22;51343;51.396;6.656;2023-04-01T10:39:53;10.00;99.90
7894;DHT22;51343;51.396;6.656;2023-04-01T10:42:29;10.00;99.90
7894;DHT22;51343;51.396;6.656;2023-04-01T10:56:15;10.00;99.90
7894;DHT22;51343;51.396;6.656;2023-04-01T10:59:00;10.00;99.90
7894;DHT22;51343;51.396;6.656;2023-04-01T11:12:29;10.10;99.90
7894;DHT22;51343;51.396;6.656;2023-04-01T11:15:04;10.10;99.90
7894;DHT22;51343;51.396;6.656;2023-04-01T11:17:37;10.10;99.90
7894;DHT22;51343;51.396;6.656;2023-04-01T11:20:19;10.20;99.90
7894;DHT22;51343;51.396;6.656;2023-04-01T11:22:55;10.20;99.90
7894;DHT22;51343;51.396;6.656;2023-04-01T11:28:22;10.30;99.90
7894;DHT22;51343;51.396;6.656;2023-04-01T11:30:56;10.20;99.90
7894;DHT22;51343;51.396;6.656;2023-04-01T11:33:28;10.20;99.90
7894;DHT22;51343;51.396;6.656;2023-04-01T11:36:09;10.20;99.90
7894;DHT22;51343;51.396;6.656;2023-04-01T11:41:22;10.10;99.90
7894;DHT22;51343;51.396;6.656;2023-04-01T11:44:03;10.10;99.90
7894;DHT22;51343;51.396;6.656;2023-04-01T11:46:39;10.10;99.90
7894;DHT22;51343;51.396;6.656;2023-04-01T11:49:14;10.20;99.90
7894;DHT22;51343;51.396;6.656;2023-04-01T11:51:47;10.20;99.90
7894;DHT22;51343;51.396;6.656;2023-04-01T11:54:22;10.20;99.90
7894;DHT22;51343;51.396;6.656;2023-04-01T11:56:54;10.20;99.90
7894;DHT22;51343;51.396;6.656;2023-04-01T11:59:31;10.30;99.90
7894;DHT22;51343;51.396;6.656;2023-04-01T12:02:08;10.20;99.90
7894;DHT22;51343;51.396;6.656;2023-04-01T12:04:51;10.30;99.90
7894;DHT22;51343;51.396;6.656;2023-04-01T12:07:24;10.30;99.90
7894;DHT22;51343;51.396;6.656;2023-04-01T12:09:56;10.30;99.90
7894;DHT22;51343;51.396;6.656;2023-04-01T12:12:29;10.40;99.90
7894;DHT22;51343;51.396;6.656;2023-04-01T12:15:02;10.40;99.90
7894;DHT22;51343;51.396;6.656;2023-04-01T12:17:36;10.40;99.90
7894;DHT22;51343;51.396;6.656;2023-04-01T12:20:13;10.40;99.90
7894;DHT22;51343;51.396;6.656;2023-04-01T12:22:48;10.40;99.90
7894;DHT22;51343;51.396;6.656;2023-04-01T12:25:21;10.40;99.90
7894;DHT22;51343;51.396;6.656;2023-04-01T12:27:52;10.40;99.90
7894;DHT22;51343;51.396;6.656;2023-04-01T12:30:35;10.60;99.90
7894;DHT22;51343;51.396;6.656;2023-04-01T12:33:19;10.60;99.90
7894;DHT22;51343;51.396;6.656;2023-04-01T12:35:51;10.70;99.90
7894;DHT22;51343;51.396;6.656;2023-04-01T12:38:24;10.70;99.90
7894;DHT22;51343;51.396;6.656;2023-04-01T12:41:08;10.90;99.90
7894;DHT22;51343;51.396;6.656;2023-04-01T12:46:29;10.70;99.90
7894;DHT22;51343;51.396;6.656;2023-04-01T12:51:50;10.60;99.90
7894;DHT22;51343;51.396;6.656;2023-04-01T12:57:22;10.60;99.90
7894;DHT22;51343;51.396;6.656;2023-04-01T12:59:58;10.40;99.90
7894;DHT22;51343;51.396;6.656;2023-04-01T13:02:32;10.30;99.90
7894;DHT22;51343;51.396;6.656;2023-04-01T13:05:13;10.30;99.90
7894;DHT22;51343;51.396;6.656;2023-04-01T13:07:44;10.30;99.90
7894;DHT22;51343;51.396;6.656;2023-04-01T13:10:15;10.20;99.90
7894;DHT22;51343;51.396;6.656;2023-04-01T13:15:36;10.30;99.90
7894;DHT22;51343;51.396;6.656;2023-04-01T13:18:07;10.30;99.90
7894;DHT22;51343;51.396;6.656;2023-04-01T13:20:42;10.30;99.90
7894;DHT22;51343;51.396;6.656;2023-04-01T13:23:12;10.20;99.90
7894;DHT22;51343;51.396;6.656;2023-04-01T13:25:43;10.20;99.90
7894;DHT22;51343;51.396;6.656;2023-04-01T13:28:14;10.10;99.90
7894;DHT22;51343;51.396;6.656;2023-04-01T13:30:43;10.20;99.90
7894;DHT22;51343;51.396;6.656;2023-04-01T13:33:14;10.20;99.90
7894;DHT22;51343;51.396;6.656;2023-04-01T13:35:43;10.20;99.90
7894;DHT22;51343;51.396;6.656;2023-04-01T13:38:17;10.20;99.90
7894;DHT22;51343;51.396;6.656;2023-04-01T13:40:49;10.20;99.90
7894;DHT22;51343;51.396;6.656;2023-04-01T13:43:19;10.20;99.90
7894;DHT22;51343;51.396;6.656;2023-04-01T13:45:53;10.20;99.90
7894;DHT22;51343;51.396;6.656;2023-04-01T13:48:31;10.20;99.90
7894;DHT22;51343;51.396;6.656;2023-04-01T13:51:05;10.30;99.90
7894;DHT22;51343;51.396;6.656;2023-04-01T13:53:44;10.30;99.90
7894;DHT22;51343;51.396;6.656;2023-04-01T13:56:15;10.30;99.90
7894;DHT22;51343;51.396;6.656;2023-04-01T13:58:51;10.30;99.90
7894;DHT22;51343;51.396;6.656;2023-04-01T14:01:23;10.30;99.90
7894;DHT22;51343;51.396;6.656;2023-04-01T14:04:07;10.20;99.90
7894;DHT22;51343;51.396;6.656;2023-04-01T14:06:39;10.30;99.90
7894;DHT22;51343;51.396;6.656;2023-04-01T14:09:29;10.20;99.90
7894;DHT22;51343;51.396;6.656;2023-04-01T14:12:04;10.20;99.90
7894;DHT22;51343;51.396;6.656;2023-04-01T14:14:36;10.30;99.90
7894;DHT22;51343;51.396;6.656;2023-04-01T14:17:10;10.20;99.90
7894;DHT22;51343;51.396;6.656;2023-04-01T14:20:00;10.20;99.90
7894;DHT22;51343;51.396;6.656;2023-04-01T14:22:29;10.20;99.90
7894;DHT22;51343;51.396;6.656;2023-04-01T14:25:06;10.20;99.90
7894;DHT22;51343;51.396;6.656;2023-04-01T14:27:48;10.20;99.90
7894;DHT22;51343;51.396;6.656;2023-04-01T14:30:20;10.20;99.90
7894;DHT22;51343;51.396;6.656;2023-04-01T14:32:55;10.20;99.90
7894;DHT22;51343;51.396;6.656;2023-04-01T14:35:31;10.20;99.90
7894;DHT22;51343;51.396;6.656;2023-04-01T14:38:05;10.20;99.90
7894;DHT22;51343;51.396;6.656;2023-04-01T14:40:40;10.20;99.90
7894;DHT22;51343;51.396;6.656;2023-04-01T14:46:08;10.20;99.90
7894;DHT22;51343;51.396;6.656;2023-04-01T14:48:48;10.30;99.90
7894;DHT22;51343;51.396;6.656;2023-04-01T14:51:18;10.30;99.90
7894;DHT22;51343;51.396;6.656;2023-04-01T14:53:51;10.20;99.90
7894;DHT22;51343;51.396;6.656;2023-04-01T14:56:34;10.20;99.90
7894;DHT22;51343;51.396;6.656;2023-04-01T14:59:01;10.20;99.90
7894;DHT22;51343;51.396;6.656;2023-04-01T15:01:32;10.20;99.90
7894;DHT22;51343;51.396;6.656;2023-04-01T15:04:12;10.20;99.90
7894;DHT22;51343;51.396;6.656;2023-04-01T15:06:52;10.20;99.90
7894;DHT22;51343;51.396;6.656;2023-04-01T15:09:25;10.20;99.90
7894;DHT22;51343;51.396;6.656;2023-04-01T15:12:01;10.20;99.90
7894;DHT22;51343;51.396;6.656;2023-04-01T15:14:35;10.10;99.90
7894;DHT22;51343;51.396;6.656;2023-04-01T15:17:11;10.10;99.90
7894;DHT22;51343;51.396;6.656;2023-04-01T15:19:42;10.10;99.90
7894;DHT22;51343;51.396;6.656;2023-04-01T15:22:25;10.10;99.90
7894;DHT22;51343;51.396;6.656;2023-04-01T15:25:00;10.10;99.90
7894;DHT22;51343;51.396;6.656;2023-04-01T15:27:32;10.10;99.90
7894;DHT22;51343;51.396;6.656;2023-04-01T15:32:58;10.00;99.90
7894;DHT22;51343;51.396;6.656;2023-04-01T15:35:31;10.00;99.90
7894;DHT22;51343;51.396;6.656;2023-04-01T15:38:04;10.00;99.90
7894;DHT22;51343;51.396;6.656;2023-04-01T15:40:32;10.00;99.90
7894;DHT22;51343;51.396;6.656;2023-04-01T15:43:06;10.00;99.90
7894;DHT22;51343;51.396;6.656;2023-04-01T15:45:45;10.00;99.90
7894;DHT22;51343;51.396;6.656;2023-04-01T15:48:22;10.00;99.90
7894;DHT22;51343;51.396;6.656;2023-04-01T15:50:53;10.00;99.90
7894;DHT22;51343;51.396;6.656;2023-04-01T15:56:09;10.10;99.90
7894;DHT22;51343;51.396;6.656;2023-04-01T15:58:42;10.10;99.90
7894;DHT22;51343;51.396;6.656;2023-04-01T16:01:15;10.10;99.90
7894;DHT22;51343;51.396;6.656;2023-04-01T16:03:46;10.10;99.90
7894;DHT22;51343;51.396;6.656;2023-04-01T16:09:06;10.10;99.90
7894;DHT22;51343;51.396;6.656;2023-04-01T16:11:39;10.20;99.90
7894;DHT22;51343;51.396;6.656;2023-04-01T16:14:13;10.20;99.90
7894;DHT22;51343;51.396;6.656;2023-04-01T16:16:49;10.20;99.90
7894;DHT22;51343;51.396;6.656;2023-04-01T16:19:22;10.20;99.90
7894;DHT22;51343;51.396;6.656;2023-04-01T16:21:54;10.20;99.90
7894;DHT22;51343;51.396;6.656;2023-04-01T16:24:24;10.20;99.90
7894;DHT22;51343;51.396;6.656;2023-04-01T16:27:00;10.20;99.90
7894;DHT22;51343;51.396;6.656;2023-04-01T16:29:32;10.20;99.90
7894;DHT22;51343;51.396;6.656;2023-04-01T16:32:11;10.20;99.90
7894;DHT22;51343;51.396;6.656;2023-04-01T16:34:41;10.20;99.90
7894;DHT22;51343;51.396;6.656;2023-04-01T16:37:10;10.10;99.90
7894;DHT22;51343;51.396;6.656;2023-04-01T16:39:42;10.10;99.90
7894;DHT22;51343;51.396;6.656;2023-04-01T16:44:59;10.10;99.90
7894;DHT22;51343;51.396;6.656;2023-04-01T16:47:27;10.10;99.90
7894;DHT22;51343;51.396;6.656;2023-04-01T16:49:58;10.00;99.90
7894;DHT22;51343;51.396;6.656;2023-04-01T16:52:43;10.00;99.90
7894;DHT22;51343;51.396;6.656;2023-04-01T16:55:15;10.00;99.90
7894;DHT22;51343;51.396;6.656;2023-04-01T16:57:43;10.00;99.90
7894;DHT22;51343;51.396;6.656;2023-04-01T17:00:16;10.00;99.90
7894;DHT22;51343;51.396;6.656;2023-04-01T17:02:45;10.00;99.90
7894;DHT22;51343;51.396;6.656;2023-04-01T17:05:14;10.00;99.90
7894;DHT22;51343;51.396;6.656;2023-04-01T17:07:44;10.00;99.90
7894;DHT22;51343;51.396;6.656;2023-04-01T17:10:31;10.00;99.90
7894;DHT22;51343;51.396;6.656;2023-04-01T17:13:06;10.00;99.90
7894;DHT22;51343;51.396;6.656;2023-04-01T17:15:40;10.00;99.90
7894;DHT22;51343;51.396;6.656;2023-04-01T17:18:08;10.00;99.90
7894;DHT22;51343;51.396;6.656;2023-04-01T17:20:40;10.00;99.90
7894;DHT22;51343;51.396;6.656;2023-04-01T17:23:11;9.90;99.90
7894;DHT22;51343;51.396;6.656;2023-04-01T17:25:43;9.90;99.90
7894;DHT22;51343;51.396;6.656;2023-04-01T17:28:16;9.90;99.90
7894;DHT22;51343;51.396;6.656;2023-04-01T17:30:51;9.90;99.90
7894;DHT22;51343;51.396;6.656;2023-04-01T17:33:26;9.90;99.90
7894;DHT22;51343;51.396;6.656;2023-04-01T17:35:56;9.90;99.90
7894;DHT22;51343;51.396;6.656;2023-04-01T17:38:30;9.80;99.90
7894;DHT22;51343;51.396;6.656;2023-04-01T17:41:00;9.80;99.90
7894;DHT22;51343;51.396;6.656;2023-04-01T17:43:33;9.80;99.90
7894;DHT22;51343;51.396;6.656;2023-04-01T17:46:08;9.80;99.90
7894;DHT22;51343;51.396;6.656;2023-04-01T17:48:38;9.80;99.90
7894;DHT22;51343;51.396;6.656;2023-04-01T17:51:12;9.80;99.90
7894;DHT22;51343;51.396;6.656;2023-04-01T17:53:42;9.80;99.90
7894;DHT22;51343;51.396;6.656;2023-04-01T17:56:18;9.80;99.90
7894;DHT22;51343;51.396;6.656;2023-04-01T17:58:49;9.80;99.90
7894;DHT22;51343;51.396;6.656;2023-04-01T18:01:21;9.80;99.90
7894;DHT22;51343;51.396;6.656;2023-04-01T18:04:07;9.80;99.90
7894;DHT22;51343;51.396;6.656;2023-04-01T18:06:34;9.80;99.90